Time;durP1;ratioP1;P1;durP2;ratioP2;P2;SDS_P1;SDS_P2;PMS_P1;PMS_P2;Temp;Humidity;BMP_temperature;BMP_pressure;BME280_temperature;BME280_humidity;BME280_pressure;Samples;Min_cycle;Max_cycle;Signal;HPM_P1;HPM_P2
2021/08/15 00:00:34;;;;;;;10.15;9.15;;;;;;;22.18;63.09;97420.63;4994784;28;20041;-76
2021/08/15 00:02:59;;;;;;;10.25;9.00;;;;;;;22.10;63.56;97406.28;5011553;28;20034;-76
2021/08/15 00:05:25;;;;;;;10.20;9.18;;;;;;;22.12;62.87;97413.91;5009726;28;20048;-76
2021/08/15 00:07:53;;;;;;;9.73;8.60;;;;;;;22.10;63.07;97410.81;4985504;28;20060;-77
2021/08/15 00:10:19;;;;;;;11.05;8.38;;;;;;;22.04;63.43;97412.84;5007214;28;20062;-77
2021/08/15 00:12:45;;;;;;;9.10;8.13;;;;;;;22.05;63.03;97412.53;5008888;28;20029;-77
2021/08/15 00:15:11;;;;;;;9.70;8.70;;;;;;;21.98;63.33;97408.78;5027365;28;20033;-77
2021/08/15 00:17:37;;;;;;;9.07;8.18;;;;;;;21.90;63.55;97418.31;5026650;28;20029;-77
2021/08/15 00:20:06;;;;;;;10.82;9.23;;;;;;;21.86;64.02;97410.19;4976488;28;20029;-76
2021/08/15 00:22:34;;;;;;;9.80;8.90;;;;;;;21.86;64.11;97407.53;4974048;28;20026;-76
2021/08/15 00:24:59;;;;;;;10.75;9.57;;;;;;;21.85;64.14;97405.97;4981478;28;20034;-76
2021/08/15 00:27:24;;;;;;;10.02;8.90;;;;;;;21.76;64.29;97413.13;4996547;28;20100;-76
2021/08/15 00:29:50;;;;;;;10.88;8.63;;;;;;;21.72;64.22;97406.91;4987089;28;20064;-76
2021/08/15 00:32:15;;;;;;;9.50;8.52;;;;;;;21.72;64.44;97411.44;4992508;28;20064;-76
2021/08/15 00:34:40;;;;;;;9.52;8.52;;;;;;;21.73;64.46;97407.69;4996263;28;20120;-76
2021/08/15 00:37:06;;;;;;;11.70;9.20;;;;;;;21.75;64.50;97406.28;4984822;28;20037;-76
2021/08/15 00:39:31;;;;;;;10.77;9.07;;;;;;;21.72;64.48;97409.56;5018269;28;20088;-76
2021/08/15 00:41:57;;;;;;;11.30;9.43;;;;;;;21.64;64.21;97400.53;4993644;28;20026;-77
2021/08/15 00:44:22;;;;;;;14.77;9.73;;;;;;;21.65;64.49;97398.66;4997052;28;20176;-77
2021/08/15 00:46:49;;;;;;;11.60;9.15;;;;;;;21.61;64.54;97403.00;4994600;28;20018;-76
2021/08/15 00:49:14;;;;;;;10.32;9.30;;;;;;;21.56;64.42;97398.66;5025792;28;20033;-77
2021/08/15 00:51:40;;;;;;;9.80;8.80;;;;;;;21.49;64.40;97399.09;5013035;28;20475;-76
2021/08/15 00:54:05;;;;;;;10.65;9.25;;;;;;;21.44;64.55;97396.56;4987700;28;20065;-76
2021/08/15 00:56:31;;;;;;;11.55;9.38;;;;;;;21.38;64.66;97391.72;4993944;28;20737;-76
2021/08/15 00:58:56;;;;;;;9.82;8.65;;;;;;;21.29;64.53;97389.84;4991679;28;20049;-76
2021/08/15 01:01:22;;;;;;;10.63;8.30;;;;;;;21.24;64.68;97382.03;5005504;28;20072;-77
2021/08/15 01:03:47;;;;;;;10.13;9.10;;;;;;;21.27;64.66;97380.66;4986283;28;20037;-77
2021/08/15 01:06:12;;;;;;;10.00;8.95;;;;;;;21.22;65.19;97386.09;5028403;28;20041;-76
2021/08/15 01:08:38;;;;;;;10.57;9.43;;;;;;;21.19;64.81;97384.84;5027728;28;20480;-76
2021/08/15 01:11:09;;;;;;;10.35;9.25;;;;;;;21.04;64.74;97380.75;5011354;28;20069;-76
2021/08/15 01:13:38;;;;;;;10.77;9.68;;;;;;;21.19;64.51;97382.19;5025699;28;20468;-76
2021/08/15 01:16:05;;;;;;;11.10;9.77;;;;;;;21.15;64.68;97373.31;4996816;28;20030;-76
2021/08/15 01:18:32;;;;;;;11.88;9.07;;;;;;;21.23;64.56;97379.69;5006809;28;20025;-76
2021/08/15 01:21:03;;;;;;;12.27;8.98;;;;;;;21.17;64.71;97370.34;5012825;28;20087;-76
2021/08/15 01:23:28;;;;;;;10.93;8.95;;;;;;;21.29;64.58;97373.94;4993557;28;20030;-77
2021/08/15 01:25:54;;;;;;;10.60;9.30;;;;;;;21.25;64.41;97377.50;5001311;28;20033;-76
2021/08/15 01:28:20;;;;;;;11.90;10.52;;;;;;;21.14;64.50;97372.50;4986611;28;20030;-76
2021/08/15 01:30:47;;;;;;;9.30;8.40;;;;;;;21.06;64.54;97373.28;4981965;28;20034;-77
2021/08/15 01:33:24;;;;;;;9.63;8.73;;;;;;;20.83;65.09;97371.81;5013793;28;20025;-77
2021/08/15 01:35:50;;;;;;;9.35;8.18;;;;;;;20.96;65.01;97370.94;5000071;28;20489;-77
2021/08/15 01:38:16;;;;;;;9.60;8.38;;;;;;;20.95;65.35;97375.41;5010725;28;20037;-77
2021/08/15 01:40:41;;;;;;;9.82;7.85;;;;;;;20.97;64.80;97371.69;5013315;28;20042;-77
2021/08/15 01:43:07;;;;;;;9.55;8.02;;;;;;;20.96;64.71;97370.94;5001761;28;20116;-77
2021/08/15 01:45:32;;;;;;;8.52;7.30;;;;;;;20.96;64.89;97370.94;4995408;28;20483;-77
2021/08/15 01:47:57;;;;;;;7.93;7.03;;;;;;;20.96;64.54;97355.03;5030459;28;20026;-77
2021/08/15 01:50:23;;;;;;;8.20;7.03;;;;;;;20.94;64.40;97367.81;4996287;28;20040;-77
2021/08/15 01:52:48;;;;;;;8.70;7.05;;;;;;;20.95;64.61;97375.41;4988946;28;20033;-77
2021/08/15 01:55:14;;;;;;;7.80;7.00;;;;;;;20.90;64.48;97367.63;5009265;28;20500;-77
2021/08/15 01:57:39;;;;;;;8.68;7.35;;;;;;;20.90;65.10;97369.50;4998896;28;20041;-77
2021/08/15 02:00:05;;;;;;;9.07;7.18;;;;;;;20.87;64.31;97370.91;5002481;28;20026;-77
2021/08/15 02:02:31;;;;;;;7.90;7.10;;;;;;;20.86;64.56;97371.97;5011816;28;20500;-77
2021/08/15 02:04:56;;;;;;;7.85;7.15;;;;;;;20.85;64.63;97359.03;4995745;28;20041;-77
2021/08/15 02:07:21;;;;;;;10.57;7.30;;;;;;;20.83;64.70;97366.50;5006271;28;20187;-77
2021/08/15 02:09:47;;;;;;;8.40;6.68;;;;;;;20.79;64.50;97360.28;4996273;28;20502;-77
2021/08/15 02:12:15;;;;;;;8.68;7.28;;;;;;;20.69;64.78;97361.34;5008527;28;20653;-77
2021/08/15 02:14:40;;;;;;;8.15;6.68;;;;;;;20.70;64.37;97360.22;5021712;28;20120;-77
2021/08/15 02:17:06;;;;;;;9.48;7.80;;;;;;;20.66;64.72;97360.06;4995932;28;20453;-77
2021/08/15 02:19:33;;;;;;;8.52;7.05;;;;;;;20.63;64.76;97358.03;4995819;28;20471;-77
2021/08/15 02:21:58;;;;;;;9.73;7.20;;;;;;;20.61;64.96;97354.88;4995510;28;20033;-77
2021/08/15 02:24:24;;;;;;;7.78;6.38;;;;;;;20.59;65.07;97355.19;5012165;28;20468;-77
2021/08/15 02:26:49;;;;;;;8.32;6.40;;;;;;;20.60;64.58;97355.97;5014697;28;20029;-77
2021/08/15 02:29:17;;;;;;;8.52;6.53;;;;;;;20.53;65.01;97348.47;4989213;28;20029;-77
2021/08/15 02:31:42;;;;;;;7.78;6.80;;;;;;;20.48;64.66;97351.25;5008322;28;20045;-77
2021/08/15 02:34:07;;;;;;;7.60;6.82;;;;;;;20.48;64.68;97347.84;5008640;28;20040;-77
2021/08/15 02:36:33;;;;;;;11.73;7.03;;;;;;;20.39;64.88;97342.47;4992488;28;20493;-77
2021/08/15 02:38:58;;;;;;;8.57;7.38;;;;;;;20.28;65.03;97344.63;5015295;28;20033;-77
2021/08/15 02:41:24;;;;;;;9.73;8.77;;;;;;;20.18;65.12;97339.56;5003134;28;20485;-77
2021/08/15 02:43:50;;;;;;;9.82;8.15;;;;;;;20.23;65.17;97342.09;4994528;28;20052;-77
2021/08/15 02:46:15;;;;;;;9.80;7.60;;;;;;;20.14;64.99;97341.28;4992262;28;20164;-77
2021/08/15 02:48:40;;;;;;;9.70;7.20;;;;;;;20.11;64.35;97336.59;4992354;28;20030;-77
2021/08/15 02:51:06;;;;;;;9.60;7.22;;;;;;;20.12;64.79;97338.94;4988943;28;20029;-77
2021/08/15 02:53:31;;;;;;;10.43;7.85;;;;;;;20.10;64.96;97341.09;5011484;28;20041;-77
2021/08/15 02:55:56;;;;;;;8.68;7.15;;;;;;;20.11;65.21;97336.59;5022706;28;20117;-77
2021/08/15 02:58:22;;;;;;;8.32;7.45;;;;;;;20.08;65.08;97335.31;5011295;28;20029;-77
2021/08/15 03:00:47;;;;;;;11.48;7.47;;;;;;;20.07;65.01;97335.66;4982869;28;20042;-77
2021/08/15 03:03:12;;;;;;;9.50;7.80;;;;;;;20.04;65.45;97334.38;4991617;28;20103;-77
2021/08/15 03:05:38;;;;;;;11.10;8.30;;;;;;;20.10;65.40;97333.19;4991851;28;20053;-77
2021/08/15 03:08:03;;;;;;;9.05;8.15;;;;;;;20.07;65.31;97331.13;4991744;28;20440;-77
2021/08/15 03:10:29;;;;;;;10.02;7.70;;;;;;;20.07;65.39;97327.72;5008363;28;20358;-77
2021/08/15 03:12:56;;;;;;;9.07;7.47;;;;;;;20.08;65.51;97331.91;5024063;28;20400;-77
2021/08/15 03:15:22;;;;;;;8.68;7.47;;;;;;;20.04;65.75;97329.09;5008965;28;20124;-77
2021/08/15 03:17:47;;;;;;;9.93;7.95;;;;;;;20.04;65.79;97326.44;5015944;28;20113;-77
2021/08/15 03:20:14;;;;;;;9.55;6.88;;;;;;;20.06;65.73;97334.06;4994965;28;20033;-77
2021/08/15 03:22:39;;;;;;;9.02;8.10;;;;;;;20.01;65.67;97327.84;5021982;28;20037;-77
2021/08/15 03:25:06;;;;;;;9.43;7.47;;;;;;;20.02;65.88;97328.63;5010075;28;20052;-77
2021/08/15 03:27:31;;;;;;;10.90;8.00;;;;;;;20.10;65.53;97335.81;4991373;28;20029;-77
2021/08/15 03:29:56;;;;;;;9.45;8.30;;;;;;;20.10;65.56;97332.38;5007773;28;20030;-77
2021/08/15 03:32:22;;;;;;;9.68;8.50;;;;;;;20.07;66.01;97330.34;4989988;28;20045;-77
2021/08/15 03:34:47;;;;;;;10.32;7.65;;;;;;;20.01;66.32;97330.47;4994957;28;20376;-77
2021/08/15 03:37:12;;;;;;;10.38;7.82;;;;;;;20.00;66.67;97326.25;4997592;28;20487;-77
2021/08/15 03:39:38;;;;;;;10.85;8.95;;;;;;;20.02;66.15;97331.25;5026404;28;20117;-77
2021/08/15 03:42:03;;;;;;;11.13;8.63;;;;;;;19.96;66.30;97330.59;4990691;28;20045;-77
2021/08/15 03:44:30;;;;;;;11.50;8.75;;;;;;;19.96;66.32;97325.31;5009966;28;20456;-77
2021/08/15 03:46:56;;;;;;;13.10;8.55;;;;;;;19.98;66.41;97328.44;5020804;28;20034;-77
2021/08/15 03:49:21;;;;;;;10.43;8.93;;;;;;;19.96;66.42;97325.31;4998083;28;20042;-77
2021/08/15 03:51:49;;;;;;;9.52;8.43;;;;;;;19.91;66.22;97322.00;4990719;28;20044;-77
2021/08/15 03:54:19;;;;;;;9.82;8.13;;;;;;;19.90;66.41;97315.16;5007356;28;20481;-77
2021/08/15 03:56:44;;;;;;;9.85;8.10;;;;;;;19.87;65.82;97324.47;4990919;28;20396;-77
2021/08/15 03:59:10;;;;;;;10.55;8.52;;;;;;;19.83;65.89;97323.50;5010212;28;20037;-77
2021/08/15 04:01:35;;;;;;;11.90;8.82;;;;;;;19.82;65.83;97325.34;4996663;28;20058;-77
2021/08/15 04:04:00;;;;;;;9.73;8.30;;;;;;;19.87;65.76;97321.81;5010787;28;20431;-77
2021/08/15 04:06:27;;;;;;;11.45;7.80;;;;;;;19.87;65.93;97323.69;5010658;28;20045;-77
2021/08/15 04:08:52;;;;;;;9.10;7.63;;;;;;;19.82;65.98;97324.59;5013382;28;20022;-77
2021/08/15 04:11:18;;;;;;;8.88;7.25;;;;;;;19.84;65.83;97330.34;4989812;28;20388;-77
2021/08/15 04:13:44;;;;;;;9.77;7.63;;;;;;;19.80;65.80;97330.16;4997744;28;20569;-77
2021/08/15 04:16:09;;;;;;;11.27;8.43;;;;;;;19.78;65.77;97334.22;4980922;28;20710;-77
2021/08/15 04:18:35;;;;;;;8.95;7.57;;;;;;;19.75;66.05;97327.66;4995528;28;20472;-77
2021/08/15 04:21:01;;;;;;;9.68;8.05;;;;;;;19.72;66.00;97325.56;5013856;28;20037;-77
2021/08/15 04:23:26;;;;;;;8.68;7.78;;;;;;;19.70;65.98;97321.69;4981442;28;20044;-77
2021/08/15 04:25:52;;;;;;;9.05;7.35;;;;;;;19.69;66.33;97323.53;5004075;28;20045;-77
2021/08/15 04:28:22;;;;;;;8.65;7.50;;;;;;;19.68;66.66;97326.50;4994323;28;20026;-77
2021/08/15 04:30:48;;;;;;;10.65;7.93;;;;;;;19.63;66.45;97314.16;5019468;28;20090;-77
2021/08/15 04:33:18;;;;;;;8.90;7.45;;;;;;;19.62;66.64;97321.31;5022346;28;20065;-77
2021/08/15 04:35:43;;;;;;;9.63;7.93;;;;;;;19.61;66.66;97325.03;5014560;28;20103;-77
2021/08/15 04:38:08;;;;;;;7.90;7.10;;;;;;;19.65;66.22;97325.22;5011385;28;20029;-77
2021/08/15 04:40:34;;;;;;;9.57;7.70;;;;;;;19.62;66.39;97326.59;5012441;28;20073;-77
2021/08/15 04:42:59;;;;;;;9.35;7.80;;;;;;;19.62;66.60;97318.69;4995624;28;20728;-77
2021/08/15 04:45:24;;;;;;;8.55;7.57;;;;;;;19.62;66.51;97323.16;5031592;28;20423;-77
2021/08/15 04:47:50;;;;;;;8.85;7.35;;;;;;;19.64;66.80;97321.78;5007397;28;20033;-77
2021/08/15 04:50:18;;;;;;;8.18;7.13;;;;;;;19.59;66.72;97318.50;4997194;28;20431;-77
2021/08/15 04:52:43;;;;;;;7.90;7.10;;;;;;;19.71;66.32;97317.97;4990432;28;20063;-77
2021/08/15 04:55:09;;;;;;;8.43;7.63;;;;;;;19.69;66.78;97312.19;5031310;28;20036;-77
2021/08/15 04:57:34;;;;;;;7.85;7.05;;;;;;;19.73;66.72;97316.56;5029633;28;20029;-77
2021/08/15 05:00:00;;;;;;;9.52;7.93;;;;;;;19.76;66.69;97318.66;4978694;28;20036;-77
2021/08/15 05:02:25;;;;;;;9.30;7.70;;;;;;;19.79;66.50;97312.78;5023755;28;20041;-77
2021/08/15 05:04:50;;;;;;;9.35;7.60;;;;;;;19.82;66.47;97311.38;4981582;28;20130;-77
2021/08/15 05:07:16;;;;;;;10.77;7.13;;;;;;;19.82;66.55;97301.56;5000906;28;20029;-77
2021/08/15 05:09:41;;;;;;;8.88;7.25;;;;;;;19.89;67.10;97298.50;4999188;28;20377;-77
2021/08/15 05:12:06;;;;;;;10.38;8.48;;;;;;;19.98;66.83;97312.56;5012904;28;20488;-77
2021/08/15 05:14:32;;;;;;;11.27;7.78;;;;;;;20.00;66.83;97299.84;5011563;28;20515;-77
2021/08/15 05:16:57;;;;;;;9.05;6.95;;;;;;;20.04;66.88;97289.44;4984843;28;20132;-77
2021/08/15 05:19:22;;;;;;;8.80;7.07;;;;;;;20.14;66.67;97301.63;4991742;28;20073;-77
2021/08/15 05:21:48;;;;;;;8.93;7.28;;;;;;;20.17;66.05;97301.03;5014467;28;20057;-77
2021/08/15 05:24:13;;;;;;;9.18;7.45;;;;;;;20.23;65.92;97297.16;4985497;28;20480;-77
2021/08/15 05:26:38;;;;;;;9.43;7.82;;;;;;;20.28;65.61;97297.00;5001010;28;20029;-77
2021/08/15 05:29:04;;;;;;;8.98;7.43;;;;;;;20.29;65.55;97303.88;5030033;28;20079;-77
2021/08/15 05:31:29;;;;;;;8.32;6.85;;;;;;;20.25;64.97;97304.78;5005416;28;20033;-77
2021/08/15 05:33:55;;;;;;;8.13;6.82;;;;;;;20.22;65.09;97295.59;5012944;28;20029;-77
2021/08/15 05:36:20;;;;;;;7.95;7.13;;;;;;;20.30;64.94;97294.84;5013142;28;20092;-77
2021/08/15 05:38:46;;;;;;;7.40;6.68;;;;;;;20.39;64.70;97300.97;5011579;28;20099;-77
2021/08/15 05:41:11;;;;;;;7.40;6.63;;;;;;;20.48;64.53;97302.88;5010352;28;20109;-77
2021/08/15 05:43:37;;;;;;;9.18;5.75;;;;;;;20.57;64.20;97301.78;4993784;28;20022;-77
2021/08/15 05:46:02;;;;;;;9.15;6.75;;;;;;;20.66;63.85;97299.22;5009412;28;20030;-77
2021/08/15 05:48:28;;;;;;;7.45;6.22;;;;;;;20.70;63.87;97294.88;4993163;28;20061;-77
2021/08/15 05:50:53;;;;;;;8.30;6.32;;;;;;;20.76;63.49;97298.16;5008797;28;20058;-77
2021/08/15 05:53:18;;;;;;;7.30;6.43;;;;;;;20.81;63.68;97305.19;5029099;28;20480;-77
2021/08/15 05:55:44;;;;;;;8.18;5.95;;;;;;;20.84;63.32;97301.94;5012159;28;20480;-77
2021/08/15 05:58:09;;;;;;;7.60;5.90;;;;;;;20.91;63.38;97304.91;5029867;28;20021;-77
2021/08/15 06:00:35;;;;;;;9.32;6.85;;;;;;;20.90;63.40;97301.44;5011680;28;20033;-77
2021/08/15 06:03:00;;;;;;;8.55;6.32;;;;;;;21.03;63.15;97313.00;4992676;28;20041;-76
2021/08/15 06:05:25;;;;;;;10.80;6.00;;;;;;;21.04;63.37;97301.34;4992430;28;20544;-76
2021/08/15 06:07:50;;;;;;;9.30;7.43;;;;;;;21.12;63.30;97311.16;4976775;28;20476;-77
2021/08/15 06:10:16;;;;;;;8.48;5.68;;;;;;;21.19;62.66;97305.38;4992003;28;20068;-76
2021/08/15 06:12:41;;;;;;;7.40;5.60;;;;;;;21.29;62.58;97296.38;5008424;28;20523;-77
2021/08/15 06:15:12;;;;;;;7.97;6.10;;;;;;;21.40;62.45;97292.31;4992615;28;20038;-77
2021/08/15 06:17:41;;;;;;;7.90;5.85;;;;;;;21.55;62.32;97299.03;5016408;28;20140;-77
2021/08/15 06:20:08;;;;;;;7.03;5.32;;;;;;;21.68;61.59;97299.97;4992797;28;20232;-77
2021/08/15 06:22:44;;;;;;;6.65;5.07;;;;;;;21.71;60.94;97299.34;4979946;28;20519;-77
2021/08/15 06:25:12;;;;;;;7.03;4.90;;;;;;;21.92;60.54;97293.38;4996199;28;20032;-77
2021/08/15 06:27:44;;;;;;;7.05;5.20;;;;;;;21.99;59.95;97293.69;4995378;28;20033;-76
2021/08/15 06:30:14;;;;;;;7.32;4.82;;;;;;;22.17;59.42;97289.88;5012172;28;20021;-77
2021/08/15 06:32:56;;;;;;;9.40;4.38;;;;;;;22.16;58.67;97298.94;5011217;28;20383;-77
2021/08/15 06:35:24;;;;;;;6.07;4.45;;;;;;;22.46;57.36;97293.72;4995495;28;20384;-76
2021/08/15 06:37:53;;;;;;;6.50;4.47;;;;;;;22.56;57.23;97288.03;5012025;28;20087;-76
2021/08/15 06:40:20;;;;;;;7.80;5.13;;;;;;;22.71;56.57;97288.59;5004468;28;20061;-76
2021/08/15 06:42:46;;;;;;;5.35;3.90;;;;;;;22.80;56.68;97284.03;4993157;28;20082;-77
2021/08/15 06:45:12;;;;;;;5.32;4.15;;;;;;;22.91;56.85;97271.94;4995181;28;20512;-76
2021/08/15 06:47:38;;;;;;;13.77;5.07;;;;;;;23.04;56.50;97258.72;4994561;28;20113;-76
2021/08/15 06:50:04;;;;;;;6.22;4.55;;;;;;;23.14;56.44;97269.00;5017158;28;20042;-76
2021/08/15 06:52:31;;;;;;;7.07;4.70;;;;;;;23.26;55.41;97269.06;4991345;28;20084;-76
2021/08/15 06:55:00;;;;;;;5.22;4.25;;;;;;;23.31;55.07;97271.50;4995183;28;20531;-77
2021/08/15 06:57:25;;;;;;;6.18;3.97;;;;;;;23.63;53.95;97273.72;5004246;28;20077;-76
2021/08/15 06:59:51;;;;;;;6.65;4.00;;;;;;;23.90;53.46;97277.72;5018885;28;20065;-76
2021/08/15 07:02:17;;;;;;;5.30;3.72;;;;;;;24.19;52.52;97276.78;4989034;28;20030;-76
2021/08/15 07:04:43;;;;;;;7.30;3.60;;;;;;;24.37;52.26;97277.38;4993986;28;20041;-76
2021/08/15 07:07:08;;;;;;;7.63;4.22;;;;;;;24.71;51.36;97269.28;5011660;28;20048;-76
2021/08/15 07:09:34;;;;;;;6.72;4.25;;;;;;;24.72;50.31;97276.94;4990552;28;20401;-76
2021/08/15 07:11:59;;;;;;;5.28;3.58;;;;;;;24.88;50.27;97271.69;4991336;28;20461;-76
2021/08/15 07:14:25;;;;;;;5.07;4.07;;;;;;;25.16;49.59;97268.31;4991372;28;20030;-77
2021/08/15 07:16:51;;;;;;;5.70;3.85;;;;;;;25.34;48.99;97258.16;5025010;28;20121;-76
2021/08/15 07:19:17;;;;;;;5.72;3.42;;;;;;;25.64;48.22;97263.94;4994821;28;20388;-77
2021/08/15 07:21:42;;;;;;;6.40;4.13;;;;;;;25.64;48.61;97268.50;4980292;28;20311;-76
2021/08/15 07:24:08;;;;;;;5.30;3.55;;;;;;;25.91;47.50;97262.34;4994747;28;20432;-76
2021/08/15 07:26:33;;;;;;;4.35;3.20;;;;;;;26.14;47.06;97267.13;4986843;28;20069;-76
2021/08/15 07:28:59;;;;;;;5.95;3.60;;;;;;;26.23;46.35;97256.28;4966278;28;20053;-76
2021/08/15 07:31:24;;;;;;;5.88;3.92;;;;;;;26.45;46.23;97254.88;4992753;28;20041;-76
2021/08/15 07:33:50;;;;;;;8.93;4.03;;;;;;;26.57;45.39;97256.69;4991186;28;20034;-76
2021/08/15 07:36:15;;;;;;;4.22;3.15;;;;;;;26.67;46.16;97259.59;5022044;28;20093;-76
2021/08/15 07:38:41;;;;;;;7.63;3.58;;;;;;;26.69;45.63;97260.03;5010055;28;20485;-76
2021/08/15 07:41:06;;;;;;;4.32;3.20;;;;;;;26.83;44.49;97253.44;5005002;28;20041;-76
2021/08/15 07:43:32;;;;;;;6.10;3.33;;;;;;;27.04;44.32;97256.59;4973823;28;20481;-76
2021/08/15 07:45:59;;;;;;;4.35;3.25;;;;;;;27.16;43.94;97260.22;4995344;28;20034;-76
2021/08/15 07:48:24;;;;;;;4.03;3.58;;;;;;;27.30;43.44;97265.91;4991697;28;20025;-76
2021/08/15 07:50:53;;;;;;;5.38;3.40;;;;;;;27.23;42.43;97271.84;4994625;28;20026;-76
2021/08/15 07:53:21;;;;;;;4.38;2.90;;;;;;;27.14;43.39;97273.94;5001885;28;20060;-76
2021/08/15 07:55:50;;;;;;;3.78;3.03;;;;;;;27.58;43.42;97268.34;5013166;28;20064;-76
2021/08/15 07:58:15;;;;;;;10.68;3.97;;;;;;;27.94;43.46;97263.66;4994598;28;20037;-76
2021/08/15 08:00:40;;;;;;;4.50;3.20;;;;;;;27.96;41.58;97261.38;4984341;28;20033;-76
2021/08/15 08:03:06;;;;;;;4.43;2.90;;;;;;;27.64;42.50;97266.13;5014550;28;20056;-76
2021/08/15 08:05:31;;;;;;;7.63;3.10;;;;;;;27.98;41.46;97263.72;4994748;28;20034;-76
2021/08/15 08:07:57;;;;;;;3.17;2.75;;;;;;;28.11;41.62;97265.09;4994960;28;20018;-76
2021/08/15 08:10:22;;;;;;;5.35;2.85;;;;;;;28.14;41.25;97264.38;4977858;28;20049;-76
2021/08/15 08:12:48;;;;;;;3.70;2.30;;;;;;;28.33;39.39;97254.72;5009420;28;20026;-76
2021/08/15 08:15:13;;;;;;;4.50;3.17;;;;;;;28.76;40.92;97253.44;4996210;28;20087;-76
2021/08/15 08:17:39;;;;;;;4.68;2.88;;;;;;;28.77;39.26;97262.25;4964932;28;20113;-76
2021/08/15 08:20:06;;;;;;;2.72;2.25;;;;;;;28.60;37.69;97262.78;4985325;28;20025;-76
2021/08/15 08:22:31;;;;;;;3.78;2.58;;;;;;;29.05;39.13;97245.00;5011009;28;20120;-76
2021/08/15 08:24:57;;;;;;;3.90;2.35;;;;;;;29.35;38.08;97250.34;4994632;28;20112;-76
2021/08/15 08:27:24;;;;;;;4.15;2.63;;;;;;;28.97;38.61;97236.09;4999812;28;20045;-76
2021/08/15 08:29:50;;;;;;;3.33;2.47;;;;;;;29.13;39.09;97246.63;5014302;28;20026;-76
2021/08/15 08:32:15;;;;;;;3.30;2.30;;;;;;;28.55;37.82;97235.19;4982071;28;20052;-76
2021/08/15 08:34:41;;;;;;;3.72;2.80;;;;;;;28.70;38.70;97238.03;5004473;28;20033;-76
2021/08/15 08:37:09;;;;;;;3.47;2.60;;;;;;;28.80;38.89;97234.72;5013836;28;20175;-76
2021/08/15 08:39:40;;;;;;;10.85;2.33;;;;;;;28.98;38.55;97243.00;4997599;28;20029;-76
2021/08/15 08:42:06;;;;;;;3.50;2.75;;;;;;;29.15;37.49;97247.06;5013363;28;20377;-76
2021/08/15 08:44:34;;;;;;;3.38;2.45;;;;;;;29.37;38.22;97255.34;5003930;28;20033;-76
2021/08/15 08:47:01;;;;;;;2.58;1.90;;;;;;;29.59;36.28;97245.63;4996013;28;20363;-76
2021/08/15 08:49:26;;;;;;;2.13;1.92;;;;;;;30.02;36.36;97244.16;5030057;28;20087;-76
2021/08/15 08:51:52;;;;;;;3.25;2.90;;;;;;;30.34;36.56;97245.53;5011827;28;20045;-76
2021/08/15 08:54:17;;;;;;;3.53;2.40;;;;;;;30.43;37.51;97243.31;5000972;28;20025;-76
2021/08/15 08:56:43;;;;;;;3.38;2.78;;;;;;;30.42;36.44;97252.53;4997032;28;20080;-76
2021/08/15 08:59:08;;;;;;;3.00;2.50;;;;;;;30.25;36.15;97243.94;4996935;28;20440;-76
2021/08/15 09:01:34;;;;;;;4.15;2.35;;;;;;;30.24;36.14;97237.00;4989842;28;20052;-76
2021/08/15 09:03:59;;;;;;;3.75;2.63;;;;;;;30.23;36.82;97234.72;5007070;28;20038;-76
2021/08/15 09:06:26;;;;;;;2.88;2.53;;;;;;;30.31;35.80;97225.53;4993815;28;20042;-76
2021/08/15 09:08:52;;;;;;;3.35;2.80;;;;;;;30.08;35.43;97233.84;4994840;28;20051;-76
2021/08/15 09:11:24;;;;;;;4.90;3.40;;;;;;;29.93;36.92;97230.25;4990853;28;20266;-76
2021/08/15 09:14:06;;;;;;;7.93;3.45;;;;;;;29.81;36.81;97230.53;4990252;28;20041;-75
2021/08/15 09:17:02;;;;;;;8.20;3.13;;;;;;;30.17;36.77;97225.47;4998417;28;20042;-76
2021/08/15 09:19:31;;;;;;;4.25;2.50;;;;;;;30.12;36.19;97226.56;5014075;28;20037;-76
2021/08/15 09:22:31;;;;;;;3.45;2.80;;;;;;;29.89;35.94;97221.41;4976665;28;20026;-76
2021/08/15 09:25:02;;;;;;;4.00;3.15;;;;;;;30.52;36.72;97218.78;4995781;28;20033;-76
2021/08/15 09:27:36;;;;;;;3.85;2.92;;;;;;;30.76;35.08;97223.56;4996481;28;20046;-76
2021/08/15 09:30:07;;;;;;;3.28;2.85;;;;;;;30.76;36.21;97222.75;5012439;28;20037;-76
2021/08/15 09:32:34;;;;;;;3.28;2.80;;;;;;;31.15;35.36;97222.97;4996175;28;20041;-76
2021/08/15 09:35:01;;;;;;;3.22;2.78;;;;;;;31.32;35.99;97215.31;5011554;28;20029;-76
2021/08/15 09:37:35;;;;;;;3.47;2.83;;;;;;;31.29;35.02;97221.47;5006797;28;20087;-76
2021/08/15 09:40:01;;;;;;;3.03;2.75;;;;;;;31.49;33.78;97217.28;5007272;28;20026;-76
2021/08/15 09:42:43;;;;;;;11.35;4.05;;;;;;;31.16;35.58;97213.75;4992493;28;20034;-76
2021/08/15 09:45:44;;;;;;;5.38;2.92;;;;;;;31.46;33.99;97203.81;4992326;28;20155;-76
2021/08/15 09:48:36;;;;;;;3.72;3.25;;;;;;;31.54;34.50;97206.16;5010481;28;20029;-76
2021/08/15 09:51:11;;;;;;;3.42;2.70;;;;;;;32.12;33.11;97195.44;5011844;28;20041;-76
2021/08/15 09:54:06;;;;;;;12.65;2.90;;;;;;;31.98;32.85;97193.50;4995449;28;20055;-76
2021/08/15 09:56:38;;;;;;;3.95;3.08;;;;;;;31.95;33.59;97190.81;5005909;28;20049;-76
2021/08/15 09:59:16;;;;;;;2.90;2.70;;;;;;;31.89;32.71;97193.13;5005548;28;20120;-76
2021/08/15 10:01:45;;;;;;;3.20;2.53;;;;;;;32.15;33.23;97185.81;4994225;28;20394;-76
2021/08/15 10:04:11;;;;;;;3.15;2.85;;;;;;;32.08;33.73;97189.28;4981857;28;20407;-76
2021/08/15 10:06:41;;;;;;;3.60;3.03;;;;;;;31.86;34.01;97180.44;4991357;28;20042;-76
2021/08/15 10:09:08;;;;;;;3.42;3.10;;;;;;;32.32;34.06;97178.84;5014656;28;20083;-76
2021/08/15 10:11:34;;;;;;;3.53;2.60;;;;;;;32.42;33.14;97178.84;4991356;28;20076;-76
2021/08/15 10:14:01;;;;;;;3.95;2.85;;;;;;;32.58;32.85;97177.66;4982466;28;20121;-76
2021/08/15 10:16:53;;;;;;;3.95;3.03;;;;;;;32.59;33.07;97174.53;5005170;28;20087;-76
2021/08/15 10:19:46;;;;;;;6.18;3.05;;;;;;;32.67;32.61;97173.41;5009547;28;20476;-76
2021/08/15 10:22:19;;;;;;;3.78;3.47;;;;;;;32.63;32.50;97169.19;5010642;28;20040;-76
2021/08/15 10:24:50;;;;;;;6.05;3.15;;;;;;;32.64;32.20;97176.88;5011136;28;20025;-76
2021/08/15 10:27:41;;;;;;;2.67;2.47;;;;;;;32.33;31.99;97177.72;4989066;28;20025;-76
2021/08/15 10:30:15;;;;;;;3.97;3.58;;;;;;;32.58;31.35;97172.25;4983020;28;20033;-76
2021/08/15 10:32:56;;;;;;;4.35;3.42;;;;;;;33.39;31.55;97156.84;4990864;28;20091;-75
2021/08/15 10:35:22;;;;;;;4.57;3.53;;;;;;;33.90;31.24;97159.97;4999029;28;20040;-76
2021/08/15 10:37:51;;;;;;;3.30;3.00;;;;;;;33.83;31.59;97162.75;4993264;28;20029;-76
2021/08/15 10:43:10;;;;;;;3.42;3.13;;;;;;;33.62;31.31;97143.97;4997161;28;20307;-75
2021/08/15 10:45:35;;;;;;;3.78;3.28;;;;;;;34.07;29.94;97147.47;5021181;28;20055;-75
2021/08/15 10:48:12;;;;;;;3.20;2.95;;;;;;;34.44;28.29;97142.47;5004097;28;20037;-75
2021/08/15 10:50:44;;;;;;;4.03;3.55;;;;;;;34.43;29.30;97144.41;5019658;28;20545;-75
2021/08/15 10:53:28;;;;;;;3.42;3.13;;;;;;;34.25;29.02;97141.88;4991121;28;20033;-75
2021/08/15 10:56:04;;;;;;;3.70;3.47;;;;;;;34.06;30.80;97139.75;5007793;28;20038;-75
2021/08/15 10:58:41;;;;;;;3.58;3.28;;;;;;;33.99;31.35;97135.19;4984667;28;20034;-75
2021/08/15 11:01:12;;;;;;;5.32;3.50;;;;;;;34.26;30.28;97131.88;4989253;28;20030;-75
2021/08/15 11:03:47;;;;;;;6.30;3.97;;;;;;;34.05;31.68;97130.09;4990406;28;20045;-75
2021/08/15 11:06:31;;;;;;;3.67;3.38;;;;;;;33.92;31.28;97124.47;4996602;28;20053;-75
2021/08/15 11:09:03;;;;;;;3.85;3.53;;;;;;;34.32;31.27;97127.53;5001344;28;20079;-75
2021/08/15 11:11:31;;;;;;;4.70;3.38;;;;;;;34.39;31.53;97115.88;5009552;28;20040;-75
2021/08/15 11:14:18;;;;;;;5.50;4.07;;;;;;;34.23;31.38;97116.44;5008653;28;20029;-76
2021/08/15 11:16:48;;;;;;;4.28;3.75;;;;;;;34.07;31.47;97114.28;4989872;28;20458;-76
2021/08/15 11:19:14;;;;;;;5.32;3.45;;;;;;;34.45;31.50;97109.63;4993206;28;20095;-76
2021/08/15 11:22:06;;;;;;;4.00;3.70;;;;;;;34.96;29.89;97109.00;5009387;28;20033;-76
2021/08/15 11:24:37;;;;;;;5.00;4.07;;;;;;;34.78;29.22;97093.03;4986830;28;20030;-76
2021/08/15 11:27:03;;;;;;;4.18;3.47;;;;;;;33.96;30.71;97098.16;5002001;28;20036;-76
2021/08/15 11:29:29;;;;;;;4.25;3.85;;;;;;;34.13;30.18;97093.75;4976957;28;20084;-76
2021/08/15 11:31:55;;;;;;;4.35;3.90;;;;;;;33.78;31.48;97099.09;4993255;28;20037;-76
2021/08/15 11:34:22;;;;;;;5.10;4.07;;;;;;;33.81;31.52;97091.38;5025952;28;20105;-76
2021/08/15 11:37:04;;;;;;;4.68;4.05;;;;;;;33.76;32.46;97082.53;4989390;28;20076;-76